Royal, Nebraska
Current Conditions -  °F | °C
As of 8:55 AM on Wednesday 22 Oct 2014 (Local Time) from KONL Reporting Station
Clear Clear  
Wind Chill: 58°   Ceiling: Unl
Heat Index: 58°   Visibility: 10mi
Dew Point: 55°   Wind: 12mph
Humidity: 91%   Direction: 160°SSE
Pressure: 29.94"   Gusts: NA
Location:  42.33°N, 98.13°W
Report Text: KONL 221355Z AUTO 16010KT 10SM CLR 15/13 A2994 RMK AO2 T01450130
Loading
Personal Weather Stations






























Interactive Weather Map
Tropical Storm Tracking
New forecast layout! Learn more

10-Day Weather Forecast

Advertisements
Track Severe Weather on mobile